sensor_id;sensor_type;location;lat;lon;timestamp;P1;durP1;ratioP1;P2;durP2;ratioP2
35114;SDS011;21292;52.416;13.046;2023-04-07T00:00:25;11.88;;;7.03;;
35114;SDS011;21292;52.416;13.046;2023-04-07T00:02:54;9.57;;;6.28;;
35114;SDS011;21292;52.416;13.046;2023-04-07T00:05:23;14.38;;;6.68;;
35114;SDS011;21292;52.416;13.046;2023-04-07T00:07:51;11.63;;;7.70;;
35114;SDS011;21292;52.416;13.046;2023-04-07T00:10:23;11.43;;;7.05;;
35114;SDS011;21292;52.416;13.046;2023-04-07T00:12:51;13.82;;;8.13;;
35114;SDS011;21292;52.416;13.046;2023-04-07T00:15:19;13.18;;;7.90;;
35114;SDS011;21292;52.416;13.046;2023-04-07T00:17:49;14.40;;;7.00;;
35114;SDS011;21292;52.416;13.046;2023-04-07T00:20:17;15.35;;;7.35;;
35114;SDS011;21292;52.416;13.046;2023-04-07T00:22:45;12.07;;;6.85;;
35114;SDS011;21292;52.416;13.046;2023-04-07T00:25:14;13.25;;;7.15;;
35114;SDS011;21292;52.416;13.046;2023-04-07T00:27:42;12.45;;;7.38;;
35114;SDS011;21292;52.416;13.046;2023-04-07T00:30:11;10.50;;;7.10;;
35114;SDS011;21292;52.416;13.046;2023-04-07T00:32:41;13.05;;;6.72;;
35114;SDS011;21292;52.416;13.046;2023-04-07T00:35:12;13.57;;;7.00;;
35114;SDS011;21292;52.416;13.046;2023-04-07T00:37:41;10.05;;;6.78;;
35114;SDS011;21292;52.416;13.046;2023-04-07T00:40:09;17.17;;;7.00;;
35114;SDS011;21292;52.416;13.046;2023-04-07T00:42:37;11.57;;;7.72;;
35114;SDS011;21292;52.416;13.046;2023-04-07T00:45:07;14.68;;;7.45;;
35114;SDS011;21292;52.416;13.046;2023-04-07T00:47:37;10.40;;;7.70;;
35114;SDS011;21292;52.416;13.046;2023-04-07T00:50:07;12.57;;;7.32;;
35114;SDS011;21292;52.416;13.046;2023-04-07T00:52:37;11.43;;;7.80;;
35114;SDS011;21292;52.416;13.046;2023-04-07T00:55:07;14.45;;;7.90;;
35114;SDS011;21292;52.416;13.046;2023-04-07T00:57:35;11.88;;;6.93;;
35114;SDS011;21292;52.416;13.046;2023-04-07T01:00:05;11.82;;;7.13;;
35114;SDS011;21292;52.416;13.046;2023-04-07T01:02:36;14.63;;;7.50;;
35114;SDS011;21292;52.416;13.046;2023-04-07T01:05:11;12.73;;;7.18;;
35114;SDS011;21292;52.416;13.046;2023-04-07T01:07:47;13.23;;;7.63;;
35114;SDS011;21292;52.416;13.046;2023-04-07T01:10:19;13.48;;;7.65;;
35114;SDS011;21292;52.416;13.046;2023-04-07T01:12:51;12.40;;;7.35;;
35114;SDS011;21292;52.416;13.046;2023-04-07T01:15:21;11.02;;;7.28;;
35114;SDS011;21292;52.416;13.046;2023-04-07T01:17:52;13.30;;;7.50;;
35114;SDS011;21292;52.416;13.046;2023-04-07T01:20:23;11.85;;;7.18;;
35114;SDS011;21292;52.416;13.046;2023-04-07T01:22:56;12.48;;;7.50;;
35114;SDS011;21292;52.416;13.046;2023-04-07T01:25:26;14.27;;;7.80;;
35114;SDS011;21292;52.416;13.046;2023-04-07T01:28:13;11.25;;;7.53;;
35114;SDS011;21292;52.416;13.046;2023-04-07T01:30:49;14.20;;;9.30;;
35114;SDS011;21292;52.416;13.046;2023-04-07T01:33:18;11.38;;;7.03;;
35114;SDS011;21292;52.416;13.046;2023-04-07T01:35:47;14.77;;;8.35;;
35114;SDS011;21292;52.416;13.046;2023-04-07T01:38:17;13.02;;;7.72;;
35114;SDS011;21292;52.416;13.046;2023-04-07T01:40:45;14.55;;;8.02;;
35114;SDS011;21292;52.416;13.046;2023-04-07T01:43:14;12.40;;;8.32;;
35114;SDS011;21292;52.416;13.046;2023-04-07T01:45:44;14.85;;;8.93;;
35114;SDS011;21292;52.416;13.046;2023-04-07T01:48:14;11.68;;;8.07;;
35114;SDS011;21292;52.416;13.046;2023-04-07T01:50:43;12.45;;;8.13;;
35114;SDS011;21292;52.416;13.046;2023-04-07T01:53:11;19.42;;;8.55;;
35114;SDS011;21292;52.416;13.046;2023-04-07T01:55:41;13.48;;;8.45;;
35114;SDS011;21292;52.416;13.046;2023-04-07T01:58:10;13.93;;;8.40;;
35114;SDS011;21292;52.416;13.046;2023-04-07T02:00:38;15.13;;;8.93;;
35114;SDS011;21292;52.416;13.046;2023-04-07T02:03:08;17.00;;;8.60;;
35114;SDS011;21292;52.416;13.046;2023-04-07T02:05:40;17.98;;;8.57;;
35114;SDS011;21292;52.416;13.046;2023-04-07T02:08:08;15.52;;;9.23;;
35114;SDS011;21292;52.416;13.046;2023-04-07T02:10:39;14.10;;;8.63;;
35114;SDS011;21292;52.416;13.046;2023-04-07T02:13:09;13.45;;;8.90;;
35114;SDS011;21292;52.416;13.046;2023-04-07T02:15:41;19.08;;;9.05;;
35114;SDS011;21292;52.416;13.046;2023-04-07T02:18:11;13.60;;;8.63;;
35114;SDS011;21292;52.416;13.046;2023-04-07T02:20:41;16.95;;;9.55;;
35114;SDS011;21292;52.416;13.046;2023-04-07T02:23:11;14.60;;;9.07;;
35114;SDS011;21292;52.416;13.046;2023-04-07T02:25:40;11.68;;;8.82;;
35114;SDS011;21292;52.416;13.046;2023-04-07T02:28:08;13.77;;;8.50;;
35114;SDS011;21292;52.416;13.046;2023-04-07T02:30:37;16.33;;;9.48;;
35114;SDS011;21292;52.416;13.046;2023-04-07T02:33:05;16.23;;;9.38;;
35114;SDS011;21292;52.416;13.046;2023-04-07T02:35:38;18.10;;;8.60;;
35114;SDS011;21292;52.416;13.046;2023-04-07T02:38:07;15.40;;;9.02;;
35114;SDS011;21292;52.416;13.046;2023-04-07T02:40:36;19.98;;;9.25;;
35114;SDS011;21292;52.416;13.046;2023-04-07T02:43:04;18.80;;;9.85;;
35114;SDS011;21292;52.416;13.046;2023-04-07T02:45:32;24.00;;;10.95;;
35114;SDS011;21292;52.416;13.046;2023-04-07T02:48:00;15.98;;;9.05;;
35114;SDS011;21292;52.416;13.046;2023-04-07T02:50:28;14.20;;;8.55;;
35114;SDS011;21292;52.416;13.046;2023-04-07T02:52:57;14.45;;;9.77;;
35114;SDS011;21292;52.416;13.046;2023-04-07T02:55:27;15.20;;;9.25;;
35114;SDS011;21292;52.416;13.046;2023-04-07T02:57:55;16.17;;;9.35;;
35114;SDS011;21292;52.416;13.046;2023-04-07T03:00:23;16.13;;;8.23;;
35114;SDS011;21292;52.416;13.046;2023-04-07T03:02:52;18.73;;;9.65;;
35114;SDS011;21292;52.416;13.046;2023-04-07T03:05:21;20.40;;;10.10;;
35114;SDS011;21292;52.416;13.046;2023-04-07T03:07:49;14.35;;;8.65;;
35114;SDS011;21292;52.416;13.046;2023-04-07T03:10:18;13.15;;;7.43;;
35114;SDS011;21292;52.416;13.046;2023-04-07T03:12:48;13.55;;;8.70;;
35114;SDS011;21292;52.416;13.046;2023-04-07T03:15:16;18.38;;;9.25;;
35114;SDS011;21292;52.416;13.046;2023-04-07T03:17:44;18.23;;;8.43;;
35114;SDS011;21292;52.416;13.046;2023-04-07T03:20:13;15.30;;;9.02;;
35114;SDS011;21292;52.416;13.046;2023-04-07T03:22:42;16.23;;;9.00;;
35114;SDS011;21292;52.416;13.046;2023-04-07T03:25:13;17.02;;;9.55;;
35114;SDS011;21292;52.416;13.046;2023-04-07T03:27:41;16.45;;;9.00;;
35114;SDS011;21292;52.416;13.046;2023-04-07T03:30:11;17.25;;;9.70;;
35114;SDS011;21292;52.416;13.046;2023-04-07T03:32:39;20.10;;;10.07;;
35114;SDS011;21292;52.416;13.046;2023-04-07T03:35:09;20.70;;;9.75;;
35114;SDS011;21292;52.416;13.046;2023-04-07T03:37:37;19.15;;;11.50;;
35114;SDS011;21292;52.416;13.046;2023-04-07T03:40:07;15.32;;;8.90;;
35114;SDS011;21292;52.416;13.046;2023-04-07T03:42:35;17.00;;;9.55;;
35114;SDS011;21292;52.416;13.046;2023-04-07T03:45:05;13.38;;;9.23;;
35114;SDS011;21292;52.416;13.046;2023-04-07T03:47:35;17.38;;;10.10;;
35114;SDS011;21292;52.416;13.046;2023-04-07T03:50:03;16.70;;;10.32;;
35114;SDS011;21292;52.416;13.046;2023-04-07T03:52:33;17.02;;;9.98;;
35114;SDS011;21292;52.416;13.046;2023-04-07T03:55:01;15.38;;;9.07;;
35114;SDS011;21292;52.416;13.046;2023-04-07T03:57:30;17.35;;;9.65;;
35114;SDS011;21292;52.416;13.046;2023-04-07T03:59:58;16.88;;;9.93;;
35114;SDS011;21292;52.416;13.046;2023-04-07T04:02:26;22.75;;;10.40;;
35114;SDS011;21292;52.416;13.046;2023-04-07T04:04:55;17.23;;;8.82;;
35114;SDS011;21292;52.416;13.046;2023-04-07T04:07:23;16.05;;;9.70;;
35114;SDS011;21292;52.416;13.046;2023-04-07T04:09:52;17.75;;;8.65;;
35114;SDS011;21292;52.416;13.046;2023-04-07T04:12:22;16.35;;;9.00;;
35114;SDS011;21292;52.416;13.046;2023-04-07T04:14:50;24.67;;;11.38;;
35114;SDS011;21292;52.416;13.046;2023-04-07T04:17:18;14.32;;;9.07;;
35114;SDS011;21292;52.416;13.046;2023-04-07T04:19:46;14.00;;;8.50;;
35114;SDS011;21292;52.416;13.046;2023-04-07T04:22:16;16.25;;;9.07;;
35114;SDS011;21292;52.416;13.046;2023-04-07T04:24:45;16.27;;;8.93;;
35114;SDS011;21292;52.416;13.046;2023-04-07T04:27:13;17.92;;;9.18;;
35114;SDS011;21292;52.416;13.046;2023-04-07T04:29:41;17.10;;;8.98;;
35114;SDS011;21292;52.416;13.046;2023-04-07T04:32:10;19.00;;;9.95;;
35114;SDS011;21292;52.416;13.046;2023-04-07T04:34:38;16.65;;;10.70;;
35114;SDS011;21292;52.416;13.046;2023-04-07T04:37:07;14.55;;;9.32;;
35114;SDS011;21292;52.416;13.046;2023-04-07T04:39:37;19.90;;;9.93;;
35114;SDS011;21292;52.416;13.046;2023-04-07T04:42:05;17.90;;;10.23;;
35114;SDS011;21292;52.416;13.046;2023-04-07T04:44:34;20.33;;;11.48;;
35114;SDS011;21292;52.416;13.046;2023-04-07T04:47:02;24.23;;;12.65;;
35114;SDS011;21292;52.416;13.046;2023-04-07T04:49:30;20.50;;;11.15;;
35114;SDS011;21292;52.416;13.046;2023-04-07T04:51:59;15.80;;;10.00;;
35114;SDS011;21292;52.416;13.046;2023-04-07T04:54:27;19.58;;;10.43;;
35114;SDS011;21292;52.416;13.046;2023-04-07T04:56:57;22.70;;;10.88;;
35114;SDS011;21292;52.416;13.046;2023-04-07T04:59:25;16.48;;;10.02;;
35114;SDS011;21292;52.416;13.046;2023-04-07T05:01:53;18.92;;;10.68;;
35114;SDS011;21292;52.416;13.046;2023-04-07T05:04:22;16.42;;;10.10;;
35114;SDS011;21292;52.416;13.046;2023-04-07T05:06:51;16.70;;;9.95;;
35114;SDS011;21292;52.416;13.046;2023-04-07T05:09:19;15.13;;;9.77;;
35114;SDS011;21292;52.416;13.046;2023-04-07T05:11:48;15.18;;;9.77;;
35114;SDS011;21292;52.416;13.046;2023-04-07T05:14:18;15.57;;;10.20;;
35114;SDS011;21292;52.416;13.046;2023-04-07T05:16:46;17.42;;;9.57;;
35114;SDS011;21292;52.416;13.046;2023-04-07T05:19:14;16.52;;;9.30;;
35114;SDS011;21292;52.416;13.046;2023-04-07T05:21:42;19.17;;;9.80;;
35114;SDS011;21292;52.416;13.046;2023-04-07T05:24:11;13.80;;;8.95;;
35114;SDS011;21292;52.416;13.046;2023-04-07T05:26:39;16.67;;;10.23;;
35114;SDS011;21292;52.416;13.046;2023-04-07T05:29:07;15.50;;;8.93;;
35114;SDS011;21292;52.416;13.046;2023-04-07T05:31:36;15.88;;;9.95;;
35114;SDS011;21292;52.416;13.046;2023-04-07T05:34:06;17.90;;;8.85;;
35114;SDS011;21292;52.416;13.046;2023-04-07T05:36:34;15.55;;;9.45;;
35114;SDS011;21292;52.416;13.046;2023-04-07T05:39:02;16.55;;;9.02;;
35114;SDS011;21292;52.416;13.046;2023-04-07T05:41:30;17.40;;;9.05;;
35114;SDS011;21292;52.416;13.046;2023-04-07T05:43:58;15.30;;;9.23;;
35114;SDS011;21292;52.416;13.046;2023-04-07T05:46:26;15.40;;;8.93;;
35114;SDS011;21292;52.416;13.046;2023-04-07T05:48:56;14.75;;;9.10;;
35114;SDS011;21292;52.416;13.046;2023-04-07T05:51:32;13.20;;;9.00;;
35114;SDS011;21292;52.416;13.046;2023-04-07T05:54:01;14.68;;;9.73;;
35114;SDS011;21292;52.416;13.046;2023-04-07T05:56:30;15.45;;;8.82;;
35114;SDS011;21292;52.416;13.046;2023-04-07T05:58:58;14.63;;;8.88;;
35114;SDS011;21292;52.416;13.046;2023-04-07T06:01:27;17.00;;;9.35;;
35114;SDS011;21292;52.416;13.046;2023-04-07T06:03:57;12.45;;;8.90;;
35114;SDS011;21292;52.416;13.046;2023-04-07T06:06:27;14.15;;;8.80;;
35114;SDS011;21292;52.416;13.046;2023-04-07T06:08:58;14.30;;;9.05;;
35114;SDS011;21292;52.416;13.046;2023-04-07T06:11:26;17.05;;;8.90;;
35114;SDS011;21292;52.416;13.046;2023-04-07T06:13:55;14.55;;;8.93;;
35114;SDS011;21292;52.416;13.046;2023-04-07T06:16:23;17.25;;;9.93;;
35114;SDS011;21292;52.416;13.046;2023-04-07T06:18:51;17.08;;;9.05;;
35114;SDS011;21292;52.416;13.046;2023-04-07T06:21:20;12.55;;;8.43;;
35114;SDS011;21292;52.416;13.046;2023-04-07T06:23:48;16.35;;;8.85;;
35114;SDS011;21292;52.416;13.046;2023-04-07T06:26:17;13.00;;;8.43;;
35114;SDS011;21292;52.416;13.046;2023-04-07T06:28:46;16.00;;;9.63;;
35114;SDS011;21292;52.416;13.046;2023-04-07T06:31:16;15.48;;;9.05;;
35114;SDS011;21292;52.416;13.046;2023-04-07T06:33:44;14.23;;;8.55;;
35114;SDS011;21292;52.416;13.046;2023-04-07T06:36:13;13.05;;;8.00;;
35114;SDS011;21292;52.416;13.046;2023-04-07T06:38:42;12.57;;;8.60;;
35114;SDS011;21292;52.416;13.046;2023-04-07T06:41:11;12.10;;;8.52;;
35114;SDS011;21292;52.416;13.046;2023-04-07T06:43:42;13.43;;;8.60;;
35114;SDS011;21292;52.416;13.046;2023-04-07T06:46:11;15.45;;;8.27;;
35114;SDS011;21292;52.416;13.046;2023-04-07T06:48:40;14.60;;;8.65;;
35114;SDS011;21292;52.416;13.046;2023-04-07T06:51:08;16.95;;;9.20;;
35114;SDS011;21292;52.416;13.046;2023-04-07T06:53:36;14.95;;;8.60;;
35114;SDS011;21292;52.416;13.046;2023-04-07T06:56:07;14.15;;;8.82;;
35114;SDS011;21292;52.416;13.046;2023-04-07T06:58:36;14.53;;;8.03;;
35114;SDS011;21292;52.416;13.046;2023-04-07T07:01:04;13.68;;;8.63;;
35114;SDS011;21292;52.416;13.046;2023-04-07T07:03:33;18.70;;;9.07;;
35114;SDS011;21292;52.416;13.046;2023-04-07T07:06:01;19.73;;;9.27;;
35114;SDS011;21292;52.416;13.046;2023-04-07T07:08:30;12.00;;;7.85;;
35114;SDS011;21292;52.416;13.046;2023-04-07T07:11:00;13.30;;;8.32;;
35114;SDS011;21292;52.416;13.046;2023-04-07T07:13:30;13.15;;;8.48;;
35114;SDS011;21292;52.416;13.046;2023-04-07T07:15:58;15.50;;;8.90;;
35114;SDS011;21292;52.416;13.046;2023-04-07T07:18:26;12.18;;;7.25;;
35114;SDS011;21292;52.416;13.046;2023-04-07T07:20:57;12.77;;;8.52;;
35114;SDS011;21292;52.416;13.046;2023-04-07T07:23:25;13.88;;;8.27;;
35114;SDS011;21292;52.416;13.046;2023-04-07T07:25:53;13.98;;;8.38;;
35114;SDS011;21292;52.416;13.046;2023-04-07T07:28:21;13.13;;;7.88;;
35114;SDS011;21292;52.416;13.046;2023-04-07T07:30:51;13.05;;;8.20;;
35114;SDS011;21292;52.416;13.046;2023-04-07T07:33:20;13.68;;;8.52;;
35114;SDS011;21292;52.416;13.046;2023-04-07T07:35:48;15.15;;;9.23;;
35114;SDS011;21292;52.416;13.046;2023-04-07T07:38:16;12.00;;;8.35;;
35114;SDS011;21292;52.416;13.046;2023-04-07T07:40:46;14.50;;;8.15;;
35114;SDS011;21292;52.416;13.046;2023-04-07T07:43:15;11.68;;;8.98;;
35114;SDS011;21292;52.416;13.046;2023-04-07T07:45:43;13.60;;;8.40;;
35114;SDS011;21292;52.416;13.046;2023-04-07T07:48:14;13.23;;;8.90;;
35114;SDS011;21292;52.416;13.046;2023-04-07T07:50:42;11.55;;;8.00;;
35114;SDS011;21292;52.416;13.046;2023-04-07T07:53:10;12.65;;;8.50;;
35114;SDS011;21292;52.416;13.046;2023-04-07T07:55:38;18.45;;;9.13;;
35114;SDS011;21292;52.416;13.046;2023-04-07T07:58:07;12.27;;;8.25;;
35114;SDS011;21292;52.416;13.046;2023-04-07T08:00:38;14.95;;;8.80;;
35114;SDS011;21292;52.416;13.046;2023-04-07T08:03:06;18.75;;;9.05;;
35114;SDS011;21292;52.416;13.046;2023-04-07T08:05:36;12.82;;;8.57;;
35114;SDS011;21292;52.416;13.046;2023-04-07T08:08:04;15.70;;;8.63;;
35114;SDS011;21292;52.416;13.046;2023-04-07T08:10:35;17.15;;;8.35;;
35114;SDS011;21292;52.416;13.046;2023-04-07T08:13:07;12.88;;;8.50;;
35114;SDS011;21292;52.416;13.046;2023-04-07T08:15:35;14.40;;;7.55;;
35114;SDS011;21292;52.416;13.046;2023-04-07T08:18:03;14.20;;;7.85;;
35114;SDS011;21292;52.416;13.046;2023-04-07T08:20:33;12.48;;;7.85;;
35114;SDS011;21292;52.416;13.046;2023-04-07T08:23:03;13.85;;;7.80;;
35114;SDS011;21292;52.416;13.046;2023-04-07T08:25:33;14.30;;;7.68;;
35114;SDS011;21292;52.416;13.046;2023-04-07T08:28:05;20.58;;;9.73;;
35114;SDS011;21292;52.416;13.046;2023-04-07T08:30:33;16.10;;;8.50;;
35114;SDS011;21292;52.416;13.046;2023-04-07T08:33:04;14.95;;;8.27;;
35114;SDS011;21292;52.416;13.046;2023-04-07T08:35:33;15.07;;;8.20;;
35114;SDS011;21292;52.416;13.046;2023-04-07T08:38:01;12.05;;;7.85;;
35114;SDS011;21292;52.416;13.046;2023-04-07T08:40:30;14.25;;;8.20;;
35114;SDS011;21292;52.416;13.046;2023-04-07T08:42:59;11.90;;;7.65;;
35114;SDS011;21292;52.416;13.046;2023-04-07T08:45:28;11.77;;;7.35;;
35114;SDS011;21292;52.416;13.046;2023-04-07T08:47:56;14.05;;;8.50;;
35114;SDS011;21292;52.416;13.046;2023-04-07T08:50:26;14.18;;;8.18;;
35114;SDS011;21292;52.416;13.046;2023-04-07T08:52:55;15.27;;;6.40;;
35114;SDS011;21292;52.416;13.046;2023-04-07T08:55:24;11.63;;;6.88;;
35114;SDS011;21292;52.416;13.046;2023-04-07T08:57:54;9.68;;;6.57;;
35114;SDS011;21292;52.416;13.046;2023-04-07T09:00:22;8.35;;;5.90;;
35114;SDS011;21292;52.416;13.046;2023-04-07T09:02:50;15.00;;;6.47;;
35114;SDS011;21292;52.416;13.046;2023-04-07T09:05:19;7.50;;;4.88;;
35114;SDS011;21292;52.416;13.046;2023-04-07T09:07:49;9.95;;;5.13;;
35114;SDS011;21292;52.416;13.046;2023-04-07T09:10:17;9.38;;;6.20;;
35114;SDS011;21292;52.416;13.046;2023-04-07T09:12:47;9.18;;;5.75;;
35114;SDS011;21292;52.416;13.046;2023-04-07T09:15:16;7.55;;;4.57;;
35114;SDS011;21292;52.416;13.046;2023-04-07T09:17:45;8.85;;;5.00;;
35114;SDS011;21292;52.416;13.046;2023-04-07T09:20:13;9.80;;;6.05;;
35114;SDS011;21292;52.416;13.046;2023-04-07T09:22:42;11.80;;;5.25;;
35114;SDS011;21292;52.416;13.046;2023-04-07T09:25:12;10.00;;;4.95;;
35114;SDS011;21292;52.416;13.046;2023-04-07T09:27:58;11.52;;;5.30;;
35114;SDS011;21292;52.416;13.046;2023-04-07T09:30:30;9.50;;;5.20;;
35114;SDS011;21292;52.416;13.046;2023-04-07T09:32:59;9.38;;;6.05;;
35114;SDS011;21292;52.416;13.046;2023-04-07T09:35:29;9.75;;;5.75;;
35114;SDS011;21292;52.416;13.046;2023-04-07T09:38:02;10.32;;;5.22;;
35114;SDS011;21292;52.416;13.046;2023-04-07T09:40:31;12.23;;;5.05;;
35114;SDS011;21292;52.416;13.046;2023-04-07T09:43:00;11.88;;;5.55;;
35114;SDS011;21292;52.416;13.046;2023-04-07T09:45:30;8.98;;;4.05;;
35114;SDS011;21292;52.416;13.046;2023-04-07T09:48:06;7.25;;;3.50;;
35114;SDS011;21292;52.416;13.046;2023-04-07T09:50:35;8.63;;;3.90;;
35114;SDS011;21292;52.416;13.046;2023-04-07T09:53:05;8.95;;;3.35;;
35114;SDS011;21292;52.416;13.046;2023-04-07T09:55:34;7.30;;;3.95;;
35114;SDS011;21292;52.416;13.046;2023-04-07T09:58:02;7.80;;;3.83;;
35114;SDS011;21292;52.416;13.046;2023-04-07T10:00:33;7.78;;;3.90;;
35114;SDS011;21292;52.416;13.046;2023-04-07T10:03:02;7.97;;;4.25;;
35114;SDS011;21292;52.416;13.046;2023-04-07T10:05:31;7.10;;;4.20;;
35114;SDS011;21292;52.416;13.046;2023-04-07T10:08:02;9.48;;;4.43;;
35114;SDS011;21292;52.416;13.046;2023-04-07T10:10:31;8.63;;;5.05;;
35114;SDS011;21292;52.416;13.046;2023-04-07T10:12:59;11.10;;;4.68;;
35114;SDS011;21292;52.416;13.046;2023-04-07T10:15:28;9.35;;;4.25;;
35114;SDS011;21292;52.416;13.046;2023-04-07T10:17:58;8.15;;;4.07;;
35114;SDS011;21292;52.416;13.046;2023-04-07T10:20:27;9.63;;;4.88;;
35114;SDS011;21292;52.416;13.046;2023-04-07T10:22:57;10.30;;;4.35;;
35114;SDS011;21292;52.416;13.046;2023-04-07T10:25:31;8.10;;;4.40;;
35114;SDS011;21292;52.416;13.046;2023-04-07T10:28:02;7.20;;;3.90;;
35114;SDS011;21292;52.416;13.046;2023-04-07T10:30:32;5.88;;;3.95;;
35114;SDS011;21292;52.416;13.046;2023-04-07T10:33:02;9.98;;;4.10;;
35114;SDS011;21292;52.416;13.046;2023-04-07T10:35:55;7.20;;;3.88;;
35114;SDS011;21292;52.416;13.046;2023-04-07T10:38:30;6.88;;;4.05;;
35114;SDS011;21292;52.416;13.046;2023-04-07T10:40:59;9.93;;;4.53;;
35114;SDS011;21292;52.416;13.046;2023-04-07T10:43:36;6.88;;;4.00;;
35114;SDS011;21292;52.416;13.046;2023-04-07T10:46:05;5.50;;;3.78;;
35114;SDS011;21292;52.416;13.046;2023-04-07T10:48:34;4.95;;;3.55;;
35114;SDS011;21292;52.416;13.046;2023-04-07T10:51:15;5.40;;;3.88;;
35114;SDS011;21292;52.416;13.046;2023-04-07T10:57:07;6.18;;;3.63;;
35114;SDS011;21292;52.416;13.046;2023-04-07T10:59:38;6.18;;;3.63;;
35114;SDS011;21292;52.416;13.046;2023-04-07T11:05:02;6.00;;;3.38;;
35114;SDS011;21292;52.416;13.046;2023-04-07T11:07:42;5.47;;;2.95;;
35114;SDS011;21292;52.416;13.046;2023-04-07T11:10:21;5.50;;;3.13;;
35114;SDS011;21292;52.416;13.046;2023-04-07T11:12:58;5.50;;;3.05;;
35114;SDS011;21292;52.416;13.046;2023-04-07T11:15:28;3.80;;;2.58;;
35114;SDS011;21292;52.416;13.046;2023-04-07T11:18:07;4.85;;;3.10;;
35114;SDS011;21292;52.416;13.046;2023-04-07T11:20:51;5.35;;;2.50;;
35114;SDS011;21292;52.416;13.046;2023-04-07T11:23:21;6.90;;;2.50;;
35114;SDS011;21292;52.416;13.046;2023-04-07T11:25:58;5.45;;;2.92;;
35114;SDS011;21292;52.416;13.046;2023-04-07T11:28:27;3.50;;;2.70;;
35114;SDS011;21292;52.416;13.046;2023-04-07T11:30:56;4.60;;;2.90;;
35114;SDS011;21292;52.416;13.046;2023-04-07T11:33:26;4.43;;;2.08;;
35114;SDS011;21292;52.416;13.046;2023-04-07T11:35:59;3.63;;;2.05;;
35114;SDS011;21292;52.416;13.046;2023-04-07T11:38:28;2.75;;;1.90;;
35114;SDS011;21292;52.416;13.046;2023-04-07T11:41:08;5.05;;;2.60;;
35114;SDS011;21292;52.416;13.046;2023-04-07T11:43:38;4.10;;;2.08;;
35114;SDS011;21292;52.416;13.046;2023-04-07T11:46:08;5.10;;;2.17;;
35114;SDS011;21292;52.416;13.046;2023-04-07T11:48:38;2.75;;;1.90;;
35114;SDS011;21292;52.416;13.046;2023-04-07T11:51:15;4.47;;;2.80;;
35114;SDS011;21292;52.416;13.046;2023-04-07T11:53:45;4.28;;;2.55;;
35114;SDS011;21292;52.416;13.046;2023-04-07T11:56:14;4.40;;;2.83;;
35114;SDS011;21292;52.416;13.046;2023-04-07T11:58:48;4.47;;;3.03;;
35114;SDS011;21292;52.416;13.046;2023-04-07T12:01:17;4.93;;;2.97;;
35114;SDS011;21292;52.416;13.046;2023-04-07T12:03:57;5.18;;;2.83;;
35114;SDS011;21292;52.416;13.046;2023-04-07T12:06:31;4.90;;;3.13;;
35114;SDS011;21292;52.416;13.046;2023-04-07T12:09:01;5.85;;;3.45;;
35114;SDS011;21292;52.416;13.046;2023-04-07T12:11:29;5.22;;;3.08;;
35114;SDS011;21292;52.416;13.046;2023-04-07T12:14:03;7.97;;;3.53;;
35114;SDS011;21292;52.416;13.046;2023-04-07T12:16:36;4.47;;;3.13;;
35114;SDS011;21292;52.416;13.046;2023-04-07T12:21:33;5.88;;;3.28;;
35114;SDS011;21292;52.416;13.046;2023-04-07T12:24:02;4.88;;;3.35;;
35114;SDS011;21292;52.416;13.046;2023-04-07T12:26:30;6.47;;;4.72;;
35114;SDS011;21292;52.416;13.046;2023-04-07T12:28:58;7.78;;;4.07;;
35114;SDS011;21292;52.416;13.046;2023-04-07T12:31:31;9.82;;;4.55;;
35114;SDS011;21292;52.416;13.046;2023-04-07T12:33:59;7.70;;;4.38;;
35114;SDS011;21292;52.416;13.046;2023-04-07T12:36:28;8.32;;;4.07;;
35114;SDS011;21292;52.416;13.046;2023-04-07T12:38:57;5.78;;;3.83;;
35114;SDS011;21292;52.416;13.046;2023-04-07T12:41:26;7.43;;;3.95;;
35114;SDS011;21292;52.416;13.046;2023-04-07T12:43:54;6.38;;;4.28;;
35114;SDS011;21292;52.416;13.046;2023-04-07T12:46:22;6.85;;;4.80;;
35114;SDS011;21292;52.416;13.046;2023-04-07T12:48:51;7.85;;;4.85;;
35114;SDS011;21292;52.416;13.046;2023-04-07T12:51:19;9.38;;;5.95;;
35114;SDS011;21292;52.416;13.046;2023-04-07T12:53:47;7.82;;;5.35;;
35114;SDS011;21292;52.416;13.046;2023-04-07T12:56:18;7.43;;;5.57;;
35114;SDS011;21292;52.416;13.046;2023-04-07T12:58:48;8.50;;;5.35;;
35114;SDS011;21292;52.416;13.046;2023-04-07T13:01:16;7.70;;;5.60;;
35114;SDS011;21292;52.416;13.046;2023-04-07T13:03:45;6.53;;;4.85;;
35114;SDS011;21292;52.416;13.046;2023-04-07T13:06:14;7.40;;;5.40;;
35114;SDS011;21292;52.416;13.046;2023-04-07T13:08:43;6.80;;;4.97;;
35114;SDS011;21292;52.416;13.046;2023-04-07T13:11:12;8.50;;;4.70;;
35114;SDS011;21292;52.416;13.046;2023-04-07T13:13:43;9.00;;;5.18;;
35114;SDS011;21292;52.416;13.046;2023-04-07T13:16:11;8.55;;;5.60;;
35114;SDS011;21292;52.416;13.046;2023-04-07T13:18:40;8.90;;;4.78;;
35114;SDS011;21292;52.416;13.046;2023-04-07T13:21:08;8.18;;;4.85;;
35114;SDS011;21292;52.416;13.046;2023-04-07T13:23:57;5.35;;;4.43;;
35114;SDS011;21292;52.416;13.046;2023-04-07T13:26:25;5.63;;;4.18;;
35114;SDS011;21292;52.416;13.046;2023-04-07T13:28:55;6.28;;;4.47;;
35114;SDS011;21292;52.416;13.046;2023-04-07T13:31:23;5.00;;;3.47;;
35114;SDS011;21292;52.416;13.046;2023-04-07T13:33:52;5.22;;;4.00;;
35114;SDS011;21292;52.416;13.046;2023-04-07T13:36:20;5.72;;;3.95;;
35114;SDS011;21292;52.416;13.046;2023-04-07T13:38:49;3.97;;;3.58;;
35114;SDS011;21292;52.416;13.046;2023-04-07T13:41:17;5.18;;;3.90;;
35114;SDS011;21292;52.416;13.046;2023-04-07T13:43:47;4.72;;;3.28;;
35114;SDS011;21292;52.416;13.046;2023-04-07T13:46:19;3.40;;;2.72;;
35114;SDS011;21292;52.416;13.046;2023-04-07T13:48:54;4.40;;;3.30;;
35114;SDS011;21292;52.416;13.046;2023-04-07T13:51:23;3.15;;;2.85;;
35114;SDS011;21292;52.416;13.046;2023-04-07T13:53:51;4.18;;;3.22;;
35114;SDS011;21292;52.416;13.046;2023-04-07T13:56:19;4.78;;;3.30;;
35114;SDS011;21292;52.416;13.046;2023-04-07T13:58:48;4.13;;;3.42;;
35114;SDS011;21292;52.416;13.046;2023-04-07T14:01:16;3.85;;;2.58;;
35114;SDS011;21292;52.416;13.046;2023-04-07T14:03:46;3.53;;;2.20;;
35114;SDS011;21292;52.416;13.046;2023-04-07T14:06:15;2.88;;;2.42;;
35114;SDS011;21292;52.416;13.046;2023-04-07T14:08:44;2.88;;;2.60;;
35114;SDS011;21292;52.416;13.046;2023-04-07T14:11:15;4.45;;;2.88;;
35114;SDS011;21292;52.416;13.046;2023-04-07T14:13:44;4.70;;;3.13;;
35114;SDS011;21292;52.416;13.046;2023-04-07T14:16:12;5.35;;;3.17;;
35114;SDS011;21292;52.416;13.046;2023-04-07T14:18:41;4.10;;;2.88;;
35114;SDS011;21292;52.416;13.046;2023-04-07T14:21:10;4.78;;;3.10;;
35114;SDS011;21292;52.416;13.046;2023-04-07T14:23:39;4.35;;;3.30;;
35114;SDS011;21292;52.416;13.046;2023-04-07T14:26:08;4.57;;;2.85;;
35114;SDS011;21292;52.416;13.046;2023-04-07T14:28:37;3.08;;;2.78;;
35114;SDS011;21292;52.416;13.046;2023-04-07T14:31:06;6.03;;;3.40;;
35114;SDS011;21292;52.416;13.046;2023-04-07T14:33:39;3.95;;;3.33;;
35114;SDS011;21292;52.416;13.046;2023-04-07T14:36:07;4.88;;;3.75;;
35114;SDS011;21292;52.416;13.046;2023-04-07T14:38:37;7.40;;;4.28;;
35114;SDS011;21292;52.416;13.046;2023-04-07T14:41:05;4.75;;;4.05;;
35114;SDS011;21292;52.416;13.046;2023-04-07T14:43:36;6.13;;;3.92;;
35114;SDS011;21292;52.416;13.046;2023-04-07T14:46:05;5.47;;;3.67;;
35114;SDS011;21292;52.416;13.046;2023-04-07T14:48:35;7.18;;;4.47;;